Terminal Aerodrome Forecast
Issued by NWS

Home | Current Version | Previous Version | Text Only | Print | Product List | Glossary On
Versions: 1 2 3 4 5 6 7 8 9 10 11 12 13 14 15 16 17 18 19 20 21 22 23 24 25 26 27
000
FTUS44 KHGX 270521
TAFSGR
TAF
KSGR 270521Z 2706/2806 10004KT P6SM SCT030 SCT250
     FM270800 10004KT P6SM VCSH SCT050
     FM271600 10008KT P6SM VCSH SCT030 SCT250
     FM271800 10008KT P6SM VCTS SCT030CB
     FM280300 13004KT P6SM BKN250=

USA.gov is the U.S. government's official web portal to all federal, state and local government web resources and services.